createdAt,value
2022-12-03T00:00:36.752Z,101951.06
2022-12-03T00:03:03.984Z,101956.56
2022-12-03T00:05:30.929Z,101964.03
2022-12-03T00:07:57.788Z,101956.91
2022-12-03T00:10:24.679Z,101949.78
2022-12-03T00:12:51.382Z,101961.97
2022-12-03T00:15:18.139Z,101955.66
2022-12-03T00:17:44.885Z,101970.25
2022-12-03T00:20:21.480Z,101961.19
2022-12-03T00:22:48.479Z,101964.31
2022-12-03T00:25:15.480Z,101964.31
2022-12-03T00:27:43.137Z,101958.00
2022-12-03T00:30:11.704Z,101968.66
2022-12-03T00:32:38.547Z,101967.06
2022-12-03T00:35:05.785Z,101965.09
2022-12-03T00:37:32.558Z,101961.91
2022-12-03T00:39:59.338Z,101961.47
2022-12-03T00:42:26.076Z,101959.50
2022-12-03T00:44:53.176Z,101959.50
2022-12-03T00:47:20.451Z,101960.31
2022-12-03T00:49:47.238Z,101961.09
2022-12-03T00:52:14.223Z,101954.00
2022-12-03T00:54:40.933Z,101966.16
2022-12-03T00:57:07.724Z,101960.63
2022-12-03T00:59:34.706Z,101963.41
2022-12-03T01:02:01.552Z,101967.31
2022-12-03T01:04:28.501Z,101964.56
2022-12-03T01:06:55.439Z,101966.53
2022-12-03T01:09:22.105Z,101972.84
2022-12-03T01:11:48.855Z,101972.03
2022-12-03T01:14:17.839Z,101979.16
2022-12-03T01:16:45.347Z,101975.59
2022-12-03T01:19:13.246Z,101987.00
2022-12-03T01:21:40.328Z,101982.28
2022-12-03T01:24:07.510Z,101981.13
2022-12-03T01:26:34.232Z,101985.84
2022-12-03T01:29:00.961Z,101981.13
2022-12-03T01:31:27.811Z,101977.19
2022-12-03T01:33:55.159Z,101974.81
2022-12-03T01:36:22.073Z,101983.06
2022-12-03T01:38:48.925Z,101977.13
2022-12-03T01:41:17.822Z,101984.25
2022-12-03T01:43:45.163Z,101987.34
2022-12-03T01:46:14.471Z,101973.56
2022-12-03T01:48:41.443Z,101985.75
2022-12-03T01:51:08.317Z,101980.25
2022-12-03T01:53:35.074Z,101975.09
2022-12-03T01:56:02.004Z,101977.03
2022-12-03T01:58:29.701Z,101978.19
2022-12-03T02:01:04.820Z,101982.88
2022-12-03T02:03:32.040Z,101995.88
2022-12-03T02:05:58.803Z,101988.78
2022-12-03T02:08:38.152Z,101991.16
2022-12-03T02:11:09.594Z,101992.31
2022-12-03T02:13:36.653Z,102002.91
2022-12-03T02:16:04.763Z,102001.75
2022-12-03T02:18:32.095Z,102001.75
2022-12-03T02:21:11.484Z,102001.75
2022-12-03T02:23:46.960Z,101992.69
2022-12-03T02:26:13.885Z,101998.56
2022-12-03T02:28:40.717Z,101995.81
2022-12-03T02:31:07.697Z,101997.75
2022-12-03T02:33:34.837Z,102000.88
2022-12-03T02:36:03.857Z,102003.28
2022-12-03T02:38:34.412Z,102008.00
2022-12-03T02:41:05.233Z,101998.13
2022-12-03T02:43:32.460Z,101997.31
2022-12-03T02:46:01.793Z,102003.66
2022-12-03T02:48:37.137Z,102000.09
2022-12-03T02:51:09.206Z,102009.16
2022-12-03T02:53:42.623Z,102011.13
2022-12-03T02:56:12.058Z,102009.53
2022-12-03T02:58:40.833Z,102022.16
2022-12-03T03:01:09.546Z,102011.91
2022-12-03T03:03:37.616Z,102002.84
2022-12-03T03:06:07.678Z,102006.75
2022-12-03T03:08:35.807Z,102011.13
2022-12-03T03:11:02.858Z,102010.31
2022-12-03T03:13:31.604Z,102012.28
2022-12-03T03:15:58.965Z,102013.06
2022-12-03T03:18:25.817Z,102015.03
2022-12-03T03:20:53.370Z,102027.69
2022-12-03T03:23:22.775Z,102031.59
2022-12-03T03:26:03.744Z,102026.88
2022-12-03T03:28:31.634Z,102028.84
2022-12-03T03:31:02.613Z,102031.59
2022-12-03T03:33:29.848Z,102024.44
2022-12-03T03:35:57.276Z,102023.66
2022-12-03T03:38:24.345Z,102031.91
2022-12-03T03:40:52.028Z,102031.13
2022-12-03T03:43:21.210Z,102029.53
2022-12-03T03:45:49.028Z,102027.56
2022-12-03T03:48:16.069Z,102031.47
2022-12-03T03:50:43.879Z,102033.06
2022-12-03T03:53:12.133Z,102034.69
2022-12-03T03:55:39.925Z,102037.78
2022-12-03T03:58:06.789Z,102033.44
2022-12-03T04:00:34.983Z,102030.69
2022-12-03T04:03:06.263Z,102035.41
2022-12-03T04:05:33.270Z,102037.34
2022-12-03T04:08:00.121Z,102040.13
2022-12-03T04:10:27.298Z,102037.34
2022-12-03T04:12:54.271Z,102038.16
2022-12-03T04:15:20.989Z,102033.00
2022-12-03T04:17:47.833Z,102033.00
2022-12-03T04:20:15.178Z,102037.72
2022-12-03T04:22:41.843Z,102045.19
2022-12-03T04:25:10.864Z,102044.75
2022-12-03T04:27:37.652Z,102043.13
2022-12-03T04:30:04.632Z,102043.13
2022-12-03T04:32:31.577Z,102042.31
2022-12-03T04:34:58.331Z,102038.31
2022-12-03T04:37:25.138Z,102047.38
2022-12-03T04:39:51.982Z,102051.31
2022-12-03T04:42:18.894Z,102057.19
2022-12-03T04:44:45.614Z,102054.41
2022-12-03T04:47:18.094Z,102057.97
2022-12-03T04:49:50.352Z,102060.75
2022-12-03T04:52:19.040Z,102062.56
2022-12-03T04:54:46.330Z,102060.97
2022-12-03T04:57:13.411Z,102063.72
2022-12-03T04:59:40.595Z,102066.03
2022-12-03T05:02:09.792Z,102073.53
2022-12-03T05:04:36.931Z,102069.16
2022-12-03T05:07:04.508Z,102071.91
2022-12-03T05:09:31.668Z,102071.56
2022-12-03T05:11:58.478Z,102074.31
2022-12-03T05:14:25.341Z,102071.56
2022-12-03T05:16:52.151Z,102075.94
2022-12-03T05:19:19.205Z,102086.16
2022-12-03T05:21:46.019Z,102085.34
2022-12-03T05:24:12.805Z,102096.84
2022-12-03T05:26:39.679Z,102095.59
2022-12-03T05:29:06.450Z,102098.34
2022-12-03T05:31:33.209Z,102101.91
2022-12-03T05:34:01.067Z,102114.53
2022-12-03T05:36:27.890Z,102109.03
2022-12-03T05:38:54.663Z,102111.78
2022-12-03T05:41:21.428Z,102116.50
2022-12-03T05:43:48.177Z,102120.41
2022-12-03T05:46:14.939Z,102123.53
2022-12-03T05:48:41.940Z,102118.38
2022-12-03T05:51:08.976Z,102121.47
2022-12-03T05:53:35.635Z,102130.56
2022-12-03T05:56:02.338Z,102131.66
2022-12-03T05:58:29.126Z,102122.56
2022-12-03T06:00:55.944Z,102130.03
2022-12-03T06:03:22.808Z,102128.44
2022-12-03T06:05:49.710Z,102126.47
2022-12-03T06:08:16.531Z,102124.53
2022-12-03T06:10:43.347Z,102123.38
2022-12-03T06:13:10.140Z,102125.03
2022-12-03T06:15:43.321Z,102120.31
2022-12-03T06:18:10.701Z,102128.25
2022-12-03T06:20:37.421Z,102127.09
2022-12-03T06:23:04.202Z,102129.50
2022-12-03T06:25:30.978Z,102127.19
2022-12-03T06:27:57.771Z,102126.84
2022-12-03T06:30:24.702Z,102120.19
2022-12-03T06:32:51.445Z,102119.03
2022-12-03T06:35:18.143Z,102117.50
2022-12-03T06:37:44.849Z,102119.47
2022-12-03T06:40:12.458Z,102123.47
2022-12-03T06:42:39.302Z,102129.00
2022-12-03T06:45:06.655Z,102121.19
2022-12-03T06:47:33.598Z,102116.47
2022-12-03T06:50:00.440Z,102122.44
2022-12-03T06:52:27.328Z,102115.75
2022-12-03T06:54:54.421Z,102117.38
2022-12-03T06:57:21.265Z,102117.00
2022-12-03T06:59:48.011Z,102116.22
2022-12-03T07:02:14.666Z,102126.09
2022-12-03T07:04:46.099Z,102113.44
2022-12-03T07:07:14.026Z,102115.41
2022-12-03T07:09:40.707Z,102118.97
2022-12-03T07:12:07.630Z,102113.91
2022-12-03T07:14:34.312Z,102115.84
2022-12-03T07:17:01.145Z,102117.44
2022-12-03T07:19:32.483Z,102119.41
2022-12-03T07:22:00.127Z,102124.59
2022-12-03T07:24:27.517Z,102119.09
2022-12-03T07:26:54.342Z,102127.38
2022-12-03T07:29:21.178Z,102120.69
2022-12-03T07:31:48.491Z,102119.88
2022-12-03T07:34:15.373Z,102126.53
2022-12-03T07:36:42.188Z,102125.72
2022-12-03T07:39:08.959Z,102129.28
2022-12-03T07:41:35.735Z,102125.28
2022-12-03T07:44:02.423Z,102120.13
2022-12-03T07:46:29.309Z,102124.84
2022-12-03T07:48:56.104Z,102128.63
2022-12-03T07:51:26.223Z,102126.72
2022-12-03T07:53:57.322Z,102125.88
2022-12-03T07:56:24.078Z,102126.72
2022-12-03T07:58:50.817Z,102122.44
2022-12-03T08:01:17.544Z,102120.84
2022-12-03T08:03:45.180Z,102120.03
2022-12-03T08:06:11.976Z,102123.13
2022-12-03T08:08:39.516Z,102117.16
2022-12-03T08:11:06.859Z,102116.72
2022-12-03T08:13:34.935Z,102113.06
2022-12-03T08:16:18.099Z,102120.06
2022-12-03T08:18:47.881Z,102108.94
2022-12-03T08:21:18.882Z,102114.00
2022-12-03T08:23:46.713Z,102115.44
2022-12-03T08:26:32.917Z,102112.25
2022-12-03T08:29:01.874Z,102112.59
2022-12-03T08:31:33.427Z,102109.41
2022-12-03T08:34:21.325Z,102114.91
2022-12-03T08:36:52.136Z,102114.13
2022-12-03T08:39:32.538Z,102109.75
2022-12-03T08:42:16.710Z,102109.41
2022-12-03T08:44:43.469Z,102103.41
2022-12-03T08:47:10.282Z,102099.03
2022-12-03T08:49:37.754Z,102099.03
2022-12-03T08:52:20.079Z,102101.81
2022-12-03T08:54:55.064Z,102113.63
2022-12-03T08:57:29.329Z,102108.13
2022-12-03T09:00:19.166Z,102108.13
2022-12-03T09:02:51.874Z,102106.16
2022-12-03T09:05:23.005Z,102107.00
2022-12-03T09:07:50.097Z,102105.84
2022-12-03T09:10:18.041Z,102105.47
2022-12-03T09:12:45.658Z,102111.81
2022-12-03T09:15:12.650Z,102109.50
2022-12-03T09:17:39.439Z,102103.63
2022-12-03T09:20:07.120Z,102098.56
2022-12-03T09:22:33.835Z,102094.19
2022-12-03T09:25:00.517Z,102104.41
2022-12-03T09:27:27.255Z,102107.69
2022-12-03T09:29:54.007Z,102102.16
2022-12-03T09:32:20.800Z,102097.44
2022-12-03T09:34:47.597Z,102099.41
2022-12-03T09:37:14.411Z,102104.94
2022-12-03T09:39:41.620Z,102111.53
2022-12-03T09:42:09.468Z,102093.28
2022-12-03T09:44:37.860Z,102093.53
2022-12-03T09:47:05.246Z,102093.34
2022-12-03T09:49:38.257Z,102093.94
2022-12-03T09:52:07.223Z,102098.88
2022-12-03T09:54:34.626Z,102093.63
2022-12-03T09:57:04.445Z,102092.69
2022-12-03T09:59:32.785Z,102092.94
2022-12-03T10:02:00.042Z,102099.13
2022-12-03T10:04:28.511Z,102097.06
2022-12-03T10:06:57.401Z,102094.66
2022-12-03T10:09:26.463Z,102096.50
2022-12-03T10:11:53.303Z,102088.13
2022-12-03T10:14:20.540Z,102092.38
2022-12-03T10:16:47.476Z,102093.84
2022-12-03T10:19:35.054Z,102087.91
2022-12-03T10:22:02.025Z,102097.31
2022-12-03T10:24:36.927Z,102095.38
2022-12-03T10:27:20.616Z,102094.56
2022-12-03T10:29:56.117Z,102096.16
2022-12-03T10:32:47.748Z,102093.06
2022-12-03T10:35:17.595Z,102099.72
2022-12-03T10:38:04.378Z,102099.03
2022-12-03T10:40:36.707Z,102105.81
2022-12-03T10:43:13.648Z,102093.75
2022-12-03T10:45:41.322Z,102096.13
2022-12-03T10:48:22.424Z,102097.88
2022-12-03T10:51:04.774Z,102097.88
2022-12-03T10:53:34.425Z,102095.56
2022-12-03T10:56:05.212Z,102094.06
2022-12-03T10:58:37.836Z,102095.78
2022-12-03T11:01:18.820Z,102104.97
2022-12-03T11:03:46.405Z,102101.19
2022-12-03T11:06:18.628Z,102111.16
2022-12-03T11:08:53.007Z,102103.81
2022-12-03T11:11:29.661Z,102100.78
2022-12-03T11:13:57.488Z,102108.72
2022-12-03T11:16:39.678Z,102109.19
2022-12-03T11:19:12.670Z,102101.72
2022-12-03T11:22:05.640Z,102102.88
2022-12-03T11:24:37.948Z,102100.09
2022-12-03T11:27:04.788Z,102107.56
2022-12-03T11:29:46.535Z,102109.19
2022-12-03T11:32:39.170Z,102104.91
2022-12-03T11:35:28.346Z,102108.91
2022-12-03T11:37:55.153Z,102115.28
2022-12-03T11:40:21.888Z,102107.44
2022-12-03T11:42:49.507Z,102101.56
2022-12-03T11:45:16.491Z,102110.28
2022-12-03T11:48:00.230Z,102106.38
2022-12-03T11:50:51.148Z,102099.25
2022-12-03T11:53:24.763Z,102103.97
2022-12-03T11:56:04.581Z,102097.66
2022-12-03T11:58:33.170Z,102099.97
2022-12-03T12:01:02.024Z,102099.16
2022-12-03T12:03:32.909Z,102100.31
2022-12-03T12:06:12.006Z,102095.59
2022-12-03T12:08:41.716Z,102101.47
2022-12-03T12:11:20.092Z,102099.84
2022-12-03T12:13:58.256Z,102105.34
2022-12-03T12:16:39.926Z,102104.56
2022-12-03T12:19:32.763Z,102103.88
2022-12-03T12:22:31.896Z,102105.84
2022-12-03T12:25:22.768Z,102100.31
2022-12-03T12:27:49.537Z,102102.72
2022-12-03T12:30:20.523Z,102103.19
2022-12-03T12:33:01.965Z,102103.19
2022-12-03T12:35:30.754Z,102108.34
2022-12-03T12:38:12.635Z,102105.22
2022-12-03T12:40:42.063Z,102100.50
2022-12-03T12:43:23.751Z,102103.78
2022-12-03T12:45:54.355Z,102104.94
2022-12-03T12:48:22.509Z,102105.72
2022-12-03T12:50:53.783Z,102108.94
2022-12-03T12:53:30.583Z,102102.63
2022-12-03T12:56:06.682Z,102097.09
2022-12-03T12:58:33.720Z,102104.56
2022-12-03T13:01:15.223Z,102105.81
2022-12-03T13:03:42.292Z,102104.22
2022-12-03T13:06:16.088Z,102104.22
2022-12-03T13:08:45.651Z,102094.00
2022-12-03T13:11:35.015Z,102086.50
2022-12-03T13:14:10.798Z,102095.59
2022-12-03T13:16:38.132Z,102099.94
2022-12-03T13:19:15.789Z,102102.72
2022-12-03T13:21:45.761Z,102110.97
2022-12-03T13:24:31.407Z,102100.06
2022-12-03T13:27:20.044Z,102098.91
2022-12-03T13:29:54.825Z,102096.94
2022-12-03T13:32:33.595Z,102105.59
2022-12-03T13:35:23.940Z,102107.41
2022-12-03T13:37:50.691Z,102106.03
2022-12-03T13:40:32.523Z,102103.53
2022-12-03T13:42:59.460Z,102114.00
2022-12-03T13:45:58.397Z,102111.94
2022-12-03T13:48:31.350Z,102108.97
2022-12-03T13:51:07.942Z,102108.16
2022-12-03T13:53:38.441Z,102111.63
2022-12-03T13:56:26.061Z,102111.41
2022-12-03T13:58:52.895Z,102110.16
2022-12-03T14:01:19.568Z,102115.19
2022-12-03T14:03:46.400Z,102113.94
2022-12-03T14:06:13.086Z,102105.66
2022-12-03T14:08:39.967Z,102106.47
2022-12-03T14:11:07.213Z,102111.19
2022-12-03T14:13:33.957Z,102108.78
2022-12-03T14:16:02.065Z,102106.81
2022-12-03T14:18:28.792Z,102115.09
2022-12-03T14:20:55.472Z,102106.81
2022-12-03T14:23:22.087Z,102120.16
2022-12-03T14:25:48.707Z,102115.00
2022-12-03T14:28:15.328Z,102111.41
2022-12-03T14:30:42.069Z,102119.66
2022-12-03T14:33:08.753Z,102115.31
2022-12-03T14:35:35.528Z,102119.22
2022-12-03T14:38:02.434Z,102117.63
2022-12-03T14:40:29.113Z,102115.22
2022-12-03T14:42:55.925Z,102117.63
2022-12-03T14:45:22.644Z,102121.53
2022-12-03T14:47:49.333Z,102110.50
2022-12-03T14:50:16.076Z,102115.66
2022-12-03T14:52:42.962Z,102108.91
2022-12-03T14:55:09.786Z,102110.72
2022-12-03T14:57:36.712Z,102114.97
2022-12-03T15:00:05.696Z,102120.84
2022-12-03T15:02:32.533Z,102121.19
2022-12-03T15:04:59.245Z,102114.44
2022-12-03T15:07:26.890Z,102113.16
2022-12-03T15:09:54.166Z,102119.47
2022-12-03T15:12:22.391Z,102110.38
2022-12-03T15:14:49.076Z,102116.69
2022-12-03T15:17:15.876Z,102124.97
2022-12-03T15:19:42.676Z,102122.69
2022-12-03T15:22:09.401Z,102117.63
2022-12-03T15:24:36.271Z,102122.78
2022-12-03T15:27:03.064Z,102127.16
2022-12-03T15:29:29.909Z,102128.41
2022-12-03T15:31:56.693Z,102124.84
2022-12-03T15:34:23.810Z,102129.22
2022-12-03T15:36:51.385Z,102120.13
2022-12-03T15:39:18.140Z,102115.78
2022-12-03T15:41:44.884Z,102116.13
2022-12-03T15:44:11.598Z,102117.75
2022-12-03T15:46:38.399Z,102115.31
2022-12-03T15:49:05.077Z,102117.75
2022-12-03T15:51:32.048Z,102118.88
2022-12-03T15:53:58.764Z,102129.56
2022-12-03T15:56:26.184Z,102126.00
2022-12-03T15:58:53.040Z,102123.25
2022-12-03T16:01:19.917Z,102124.06
2022-12-03T16:03:46.744Z,102124.84
2022-12-03T16:06:13.629Z,102128.09
2022-12-03T16:08:40.685Z,102119.81
2022-12-03T16:11:07.406Z,102129.22
2022-12-03T16:13:34.251Z,102129.69
2022-12-03T16:16:02.573Z,102136.81
2022-12-03T16:18:29.841Z,102134.84
2022-12-03T16:20:56.508Z,102125.78
2022-12-03T16:23:23.218Z,102138.75
2022-12-03T16:26:05.015Z,102137.97
2022-12-03T16:28:31.841Z,102133.25
2022-12-03T16:30:58.912Z,102120.63
2022-12-03T16:33:27.710Z,102136.34
2022-12-03T16:35:54.923Z,102132.75
2022-12-03T16:38:24.388Z,102137.16
2022-12-03T16:40:51.527Z,102136.34
2022-12-03T16:43:18.320Z,102134.06
2022-12-03T16:45:45.081Z,102138.75
2022-12-03T16:48:11.928Z,102136.00
2022-12-03T16:50:38.705Z,102135.19
2022-12-03T16:53:05.417Z,102136.00
2022-12-03T16:55:32.200Z,102130.84
2022-12-03T16:57:58.963Z,102135.19
2022-12-03T17:00:25.745Z,102137.97
2022-12-03T17:02:52.872Z,102143.00
2022-12-03T17:05:20.123Z,102146.09
2022-12-03T17:07:46.908Z,102157.00
2022-12-03T17:10:13.913Z,102152.16
2022-12-03T17:13:08.216Z,102155.97
2022-12-03T17:15:27.614Z,102157.00
2022-12-03T17:17:54.290Z,102150.53
2022-12-03T17:20:21.088Z,102156.75
2022-12-03T17:22:47.862Z,102155.94
2022-12-03T17:25:16.182Z,102156.25
2022-12-03T17:27:45.301Z,102169.22
2022-12-03T17:30:13.305Z,102156.97
2022-12-03T17:32:40.215Z,102158.91
2022-12-03T17:35:08.235Z,102161.22
2022-12-03T17:38:08.187Z,102174.63
2022-12-03T17:40:35.324Z,102172.22
2022-12-03T17:43:02.137Z,102176.94
2022-12-03T17:45:34.725Z,102174.19
2022-12-03T17:48:01.480Z,102169.81
2022-12-03T17:50:28.325Z,102165.44
2022-12-03T17:52:55.102Z,102157.16
2022-12-03T17:55:31.263Z,102162.34
2022-12-03T17:58:00.781Z,102160.50
2022-12-03T18:00:29.798Z,102167.75
2022-12-03T18:02:57.017Z,102173.88
2022-12-03T18:05:23.747Z,102167.34
2022-12-03T18:07:51.115Z,102160.78
2022-12-03T18:10:18.272Z,102164.13
2022-12-03T18:12:44.940Z,102176.84
2022-12-03T18:15:11.849Z,102164.47
2022-12-03T18:17:39.725Z,102170.91
2022-12-03T18:20:08.356Z,102172.63
2022-12-03T18:22:35.374Z,102169.16
2022-12-03T18:25:02.531Z,102171.25
2022-12-03T18:27:29.376Z,102170.53
2022-12-03T18:29:57.584Z,102168.38
2022-12-03T18:32:29.698Z,102170.41
2022-12-03T18:35:00.227Z,102167.88
2022-12-03T18:37:28.882Z,102177.75
2022-12-03T18:39:57.537Z,102169.13
2022-12-03T18:42:25.142Z,102178.69
2022-12-03T18:44:53.918Z,102175.22
2022-12-03T18:47:26.735Z,102173.72
2022-12-03T18:49:54.357Z,102176.94
2022-12-03T18:52:23.612Z,102179.41
2022-12-03T18:54:50.626Z,102181.81
2022-12-03T18:57:17.974Z,102184.66
2022-12-03T18:59:44.689Z,102186.59
2022-12-03T19:03:00.628Z,102189.81
2022-12-03T19:05:07.757Z,102187.84
2022-12-03T19:07:34.833Z,102189.47
2022-12-03T19:10:01.628Z,102187.53
2022-12-03T19:12:28.268Z,102196.63
2022-12-03T19:14:55.057Z,102199.69
2022-12-03T19:17:21.858Z,102200.50
2022-12-03T19:19:49.033Z,102204.88
2022-12-03T19:22:16.464Z,102200.50
2022-12-03T19:24:43.434Z,102193.84
2022-12-03T19:27:10.468Z,102196.63
2022-12-03T19:29:37.343Z,102200.16
2022-12-03T19:32:04.155Z,102205.69
2022-12-03T19:34:31.010Z,102200.63
2022-12-03T19:36:57.814Z,102198.66
2022-12-03T19:39:24.664Z,102196.81
2022-12-03T19:41:51.418Z,102199.56
2022-12-03T19:44:19.169Z,102208.63
2022-12-03T19:46:45.892Z,102202.00
2022-12-03T19:49:12.795Z,102200.03
2022-12-03T19:51:39.587Z,102198.88
2022-12-03T19:54:10.450Z,102194.97
2022-12-03T19:56:37.670Z,102202.44
2022-12-03T19:59:05.379Z,102194.16
2022-12-03T20:01:34.893Z,102203.25
2022-12-03T20:04:03.595Z,102192.22
2022-12-03T20:06:34.871Z,102194.63
2022-12-03T20:09:06.923Z,102197.38
2022-12-03T20:11:34.767Z,102200.13
2022-12-03T20:14:05.178Z,102196.56
2022-12-03T20:16:32.494Z,102200.94
2022-12-03T20:19:02.845Z,102197.03
2022-12-03T20:21:31.858Z,102199.78
2022-12-03T20:23:58.995Z,102205.28
2022-12-03T20:26:25.872Z,102200.94
2022-12-03T20:28:56.729Z,102200.22
2022-12-03T20:31:28.835Z,102206.09
2022-12-03T20:33:58.737Z,102206.53
2022-12-03T20:36:26.522Z,102204.94
2022-12-03T20:38:58.323Z,102206.53
2022-12-03T20:41:25.282Z,102201.84
2022-12-03T20:43:52.345Z,102193.59
2022-12-03T20:46:30.725Z,102195.63
2022-12-03T20:48:58.603Z,102200.00
2022-12-03T20:51:28.212Z,102200.78
2022-12-03T20:53:55.734Z,102197.22
2022-12-03T20:56:28.947Z,102193.75
2022-12-03T20:58:55.737Z,102195.38
2022-12-03T21:01:27.031Z,102195.03
2022-12-03T21:03:55.847Z,102196.66
2022-12-03T21:06:25.534Z,102192.72
2022-12-03T21:08:54.536Z,102200.66
2022-12-03T21:11:23.823Z,102202.25
2022-12-03T21:13:51.432Z,102198.69
2022-12-03T21:16:39.757Z,102190.06
2022-12-03T21:19:10.732Z,102199.50
2022-12-03T21:21:37.661Z,102190.06
2022-12-03T21:24:04.793Z,102192.81
2022-12-03T21:26:31.643Z,102188.09
2022-12-03T21:28:58.409Z,102197.97
2022-12-03T21:31:26.753Z,102197.19
2022-12-03T21:33:55.373Z,102195.69
2022-12-03T21:36:23.579Z,102199.63
2022-12-03T21:38:50.603Z,102195.69
2022-12-03T21:41:17.754Z,102196.16
2022-12-03T21:43:44.883Z,102206.03
2022-12-03T21:47:10.468Z,102197.84
2022-12-03T21:49:01.350Z,102196.72
2022-12-03T21:51:28.159Z,102194.41
2022-12-03T21:53:54.881Z,102195.63
2022-12-03T21:56:21.808Z,102195.28
2022-12-03T21:58:48.572Z,102198.16
2022-12-03T22:01:19.145Z,102193.09
2022-12-03T22:03:46.364Z,102190.75
2022-12-03T22:06:13.766Z,102195.13
2022-12-03T22:08:40.899Z,102190.88
2022-12-03T22:11:11.581Z,102194.13
2022-12-03T22:13:39.426Z,102187.44
2022-12-03T22:16:09.161Z,102185.13
2022-12-03T22:18:36.593Z,102196.59
2022-12-03T22:21:05.775Z,102195.13
2022-12-03T22:23:33.034Z,102198.69
2022-12-03T22:26:01.664Z,102189.25
2022-12-03T22:28:29.149Z,102192.81
2022-12-03T22:30:55.907Z,102180.59
2022-12-03T22:33:23.116Z,102188.09
2022-12-03T22:36:03.700Z,102184.97
2022-12-03T22:38:31.053Z,102185.31
2022-12-03T22:40:58.557Z,102184.16
2022-12-03T22:43:25.450Z,102189.31
2022-12-03T22:45:55.916Z,102188.16
2022-12-03T22:48:23.290Z,102188.88
2022-12-03T22:50:51.611Z,102184.59
2022-12-03T22:53:18.951Z,102182.63
2022-12-03T22:55:53.656Z,102182.28
2022-12-03T22:58:20.417Z,102192.19
2022-12-03T23:00:47.260Z,102193.44
2022-12-03T23:03:14.171Z,102194.25
2022-12-03T23:05:41.064Z,102185.97
2022-12-03T23:08:11.063Z,102186.41
2022-12-03T23:10:41.021Z,102186.03
2022-12-03T23:13:08.447Z,102182.13
2022-12-03T23:15:35.334Z,102192.84
2022-12-03T23:18:02.173Z,102186.94
2022-12-03T23:20:29.248Z,102191.31
2022-12-03T23:22:56.336Z,102192.13
2022-12-03T23:25:23.018Z,102195.69
2022-12-03T23:27:49.709Z,102200.03
2022-12-03T23:30:17.194Z,102201.66
2022-12-03T23:32:43.922Z,102196.13
2022-12-03T23:35:12.537Z,102193.00
2022-12-03T23:37:39.467Z,102199.31
2022-12-03T23:40:07.015Z,102204.84
2022-12-03T23:42:33.730Z,102210.84
2022-12-03T23:45:00.460Z,102209.25
2022-12-03T23:47:27.209Z,102206.91
2022-12-03T23:49:54.125Z,102205.75
2022-12-03T23:52:20.994Z,102206.56
2022-12-03T23:54:47.940Z,102210.13
2022-12-03T23:57:14.679Z,102206.56
2022-12-03T23:59:41.419Z,102203.81
